createdAt,value
2023-05-16T00:01:24.814Z,70.70
2023-05-16T00:03:51.250Z,70.72
2023-05-16T00:06:17.959Z,70.66
2023-05-16T00:08:44.290Z,71.02
2023-05-16T00:11:10.665Z,70.85
2023-05-16T00:13:37.526Z,70.84
2023-05-16T00:16:05.122Z,71.03
2023-05-16T00:18:31.487Z,70.99
2023-05-16T00:20:58.141Z,70.84
2023-05-16T00:23:24.515Z,70.81
2023-05-16T00:25:50.939Z,70.57
2023-05-16T00:28:17.260Z,70.52
2023-05-16T00:30:43.619Z,70.79
2023-05-16T00:33:10.106Z,70.89
2023-05-16T00:35:36.596Z,70.72
2023-05-16T00:38:03.570Z,70.67
2023-05-16T00:40:29.941Z,70.50
2023-05-16T00:42:56.266Z,70.63
2023-05-16T00:45:22.599Z,70.57
2023-05-16T00:47:49.117Z,70.66
2023-05-16T00:50:16.139Z,70.88
2023-05-16T00:52:43.603Z,70.96
2023-05-16T00:55:13.074Z,70.78
2023-05-16T00:57:41.072Z,70.90
2023-05-16T01:00:10.606Z,70.48
2023-05-16T01:02:37.235Z,70.68
2023-05-16T01:05:08.366Z,70.52
2023-05-16T01:07:37.735Z,70.61
2023-05-16T01:10:06.483Z,70.66
2023-05-16T01:12:48.602Z,70.72
2023-05-16T01:15:24.978Z,70.63
2023-05-16T01:18:23.493Z,70.63
2023-05-16T01:20:56.883Z,70.83
2023-05-16T01:23:31.263Z,70.88
2023-05-16T01:26:18.822Z,70.42
2023-05-16T01:28:49.985Z,70.49
2023-05-16T01:31:19.074Z,70.44
2023-05-16T01:33:45.727Z,70.50
2023-05-16T01:36:25.944Z,70.46
2023-05-16T01:39:03.294Z,70.20
2023-05-16T01:41:59.537Z,70.09
2023-05-16T01:44:37.454Z,69.98
2023-05-16T01:47:09.624Z,69.85
2023-05-16T01:49:41.287Z,69.91
2023-05-16T01:52:16.091Z,69.48
2023-05-16T01:54:45.702Z,69.61
2023-05-16T01:57:12.940Z,69.59
2023-05-16T01:59:42.704Z,69.32
2023-05-16T02:02:10.278Z,69.41
2023-05-16T02:04:37.942Z,69.67
2023-05-16T02:07:04.513Z,69.68
2023-05-16T02:09:31.191Z,69.78
2023-05-16T02:11:57.535Z,69.73
2023-05-16T02:14:25.757Z,69.80
2023-05-16T02:16:52.231Z,69.97
2023-05-16T02:19:18.820Z,69.97
2023-05-16T02:21:45.381Z,69.80
2023-05-16T02:24:11.719Z,70.05
2023-05-16T02:26:38.034Z,70.02
2023-05-16T02:29:04.440Z,69.92
2023-05-16T02:31:32.875Z,69.73
2023-05-16T02:33:59.815Z,69.54
2023-05-16T02:36:26.904Z,69.28
2023-05-16T02:38:53.863Z,69.02
2023-05-16T02:41:22.216Z,69.23
2023-05-16T02:43:49.449Z,69.41
2023-05-16T02:46:27.642Z,69.22
2023-05-16T02:48:54.633Z,69.15
2023-05-16T02:51:22.720Z,69.19
2023-05-16T02:53:49.517Z,69.24
2023-05-16T02:56:16.506Z,69.22
2023-05-16T02:58:43.404Z,69.18
2023-05-16T03:01:09.957Z,69.24
2023-05-16T03:03:37.659Z,69.08
2023-05-16T03:06:04.244Z,68.91
2023-05-16T03:08:32.661Z,68.83
2023-05-16T03:10:59.123Z,68.65
2023-05-16T03:13:25.491Z,68.50
2023-05-16T03:15:53.255Z,68.28
2023-05-16T03:18:19.758Z,68.39
2023-05-16T03:20:46.128Z,68.24
2023-05-16T03:23:12.726Z,67.88
2023-05-16T03:25:39.238Z,67.75
2023-05-16T03:28:07.772Z,67.72
2023-05-16T03:30:34.774Z,67.90
2023-05-16T03:33:01.365Z,67.52
2023-05-16T03:35:28.918Z,67.73
2023-05-16T03:37:55.640Z,67.62
2023-05-16T03:40:22.105Z,67.30
2023-05-16T03:42:48.429Z,66.74
2023-05-16T03:45:14.813Z,66.65
2023-05-16T03:47:41.387Z,66.77
2023-05-16T03:50:08.260Z,66.48
2023-05-16T03:52:34.662Z,66.71
2023-05-16T03:55:02.915Z,66.51
2023-05-16T03:57:32.396Z,67.11
2023-05-16T03:59:58.950Z,66.64
2023-05-16T04:02:25.880Z,67.18
2023-05-16T04:04:52.383Z,67.01
2023-05-16T04:07:18.773Z,66.90
2023-05-16T04:09:45.114Z,67.11
2023-05-16T04:12:11.469Z,67.23
2023-05-16T04:14:38.091Z,66.97
2023-05-16T04:17:05.044Z,67.11
2023-05-16T04:19:31.535Z,67.42
2023-05-16T04:21:57.883Z,67.14
2023-05-16T04:24:26.491Z,67.12
2023-05-16T04:26:52.888Z,67.01
2023-05-16T04:29:19.521Z,66.79
2023-05-16T04:31:45.914Z,66.74
2023-05-16T04:34:13.028Z,66.67
2023-05-16T04:36:39.425Z,67.00
2023-05-16T04:39:06.210Z,67.10
2023-05-16T04:41:33.641Z,66.86
2023-05-16T04:44:02.344Z,66.73
2023-05-16T04:46:28.773Z,66.75
2023-05-16T04:48:55.449Z,66.50
2023-05-16T04:51:21.787Z,66.79
2023-05-16T04:53:48.585Z,66.67
2023-05-16T04:56:14.946Z,66.95
2023-05-16T04:58:42.909Z,66.68
2023-05-16T05:01:09.475Z,66.77
2023-05-16T05:03:36.339Z,66.71
2023-05-16T05:06:03.020Z,66.26
2023-05-16T05:08:29.349Z,65.97
2023-05-16T05:10:56.319Z,66.22
2023-05-16T05:13:22.711Z,66.05
2023-05-16T05:15:50.264Z,66.18
2023-05-16T05:18:16.669Z,66.42
2023-05-16T05:20:43.404Z,66.13
2023-05-16T05:23:09.814Z,65.90
2023-05-16T05:25:37.905Z,65.82
2023-05-16T05:28:04.458Z,66.04
2023-05-16T05:30:31.170Z,65.78
2023-05-16T05:32:57.559Z,65.77
2023-05-16T05:35:23.914Z,66.08
2023-05-16T05:37:50.639Z,66.08
2023-05-16T05:40:17.085Z,65.48
2023-05-16T05:42:46.092Z,65.76
2023-05-16T05:45:14.583Z,65.80
2023-05-16T05:47:41.218Z,65.61
2023-05-16T05:50:08.863Z,65.44
2023-05-16T05:52:35.311Z,65.30
2023-05-16T05:55:01.762Z,64.96
2023-05-16T05:57:28.127Z,64.51
2023-05-16T05:59:54.460Z,64.54
2023-05-16T06:02:20.826Z,64.59
2023-05-16T06:04:47.356Z,64.29
2023-05-16T06:07:15.906Z,64.17
2023-05-16T06:09:43.444Z,64.27
2023-05-16T06:12:09.876Z,64.08
2023-05-16T06:14:36.202Z,64.03
2023-05-16T06:17:02.577Z,63.09
2023-05-16T06:19:28.981Z,63.11
2023-05-16T06:21:55.511Z,62.94
2023-05-16T06:24:22.091Z,62.71
2023-05-16T06:26:50.012Z,62.71
2023-05-16T06:29:17.239Z,62.68
2023-05-16T06:31:44.607Z,62.33
2023-05-16T06:34:11.153Z,62.17
2023-05-16T06:36:37.575Z,61.53
2023-05-16T06:39:04.888Z,60.94
2023-05-16T06:41:31.346Z,60.38
2023-05-16T06:43:57.763Z,59.44
2023-05-16T06:46:24.267Z,59.18
2023-05-16T06:48:50.822Z,58.69
2023-05-16T06:51:17.255Z,57.98
2023-05-16T06:53:43.619Z,57.98
2023-05-16T06:56:10.010Z,57.25
2023-05-16T06:58:36.533Z,57.06
2023-05-16T07:01:03.131Z,57.55
2023-05-16T07:03:29.669Z,57.18
2023-05-16T07:05:57.262Z,57.39
2023-05-16T07:08:25.837Z,57.28
2023-05-16T07:10:52.199Z,56.08
2023-05-16T07:13:21.304Z,55.36
2023-05-16T07:15:47.652Z,55.75
2023-05-16T07:18:14.150Z,55.67
2023-05-16T07:20:40.661Z,54.96
2023-05-16T07:23:07.052Z,55.29
2023-05-16T07:25:33.568Z,54.25
2023-05-16T07:28:00.868Z,54.40
2023-05-16T07:30:27.308Z,54.22
2023-05-16T07:32:54.084Z,54.92
2023-05-16T07:35:20.629Z,53.04
2023-05-16T07:37:47.446Z,53.16
2023-05-16T07:40:14.425Z,53.88
2023-05-16T07:42:40.822Z,53.73
2023-05-16T07:45:07.615Z,52.65
2023-05-16T07:47:34.429Z,51.87
2023-05-16T07:50:01.029Z,50.66
2023-05-16T07:52:27.601Z,50.57
2023-05-16T07:54:54.043Z,49.40
2023-05-16T07:57:21.654Z,50.01
2023-05-16T07:59:49.823Z,49.82
2023-05-16T08:02:16.951Z,51.08
2023-05-16T08:04:43.318Z,50.90
2023-05-16T08:07:09.785Z,49.95
2023-05-16T08:09:36.197Z,49.18
2023-05-16T08:12:03.725Z,49.20
2023-05-16T08:14:31.950Z,49.83
2023-05-16T08:17:01.432Z,48.21
2023-05-16T08:19:28.055Z,51.24
2023-05-16T08:21:54.919Z,48.35
2023-05-16T08:24:21.344Z,48.62
2023-05-16T08:26:47.739Z,48.91
2023-05-16T08:29:14.328Z,46.90
2023-05-16T08:31:40.881Z,49.00
2023-05-16T08:34:11.547Z,49.36
2023-05-16T08:36:38.188Z,49.02
2023-05-16T08:39:05.073Z,48.57
2023-05-16T08:41:31.643Z,48.17
2023-05-16T08:43:58.180Z,49.93
2023-05-16T08:46:25.936Z,50.44
2023-05-16T08:48:53.862Z,49.15
2023-05-16T08:51:21.118Z,48.37
2023-05-16T08:54:17.113Z,49.88
2023-05-16T08:56:45.029Z,49.35
2023-05-16T08:59:15.058Z,48.66
2023-05-16T09:01:41.900Z,48.33
2023-05-16T09:04:09.513Z,47.57
2023-05-16T09:06:36.795Z,47.40
2023-05-16T09:09:04.604Z,49.15
2023-05-16T09:11:35.515Z,48.23
2023-05-16T09:14:03.728Z,48.19
2023-05-16T09:16:30.236Z,49.16
2023-05-16T09:19:01.718Z,47.67
2023-05-16T09:21:33.606Z,50.23
2023-05-16T09:24:04.857Z,46.40
2023-05-16T09:26:33.153Z,48.66
2023-05-16T09:28:59.682Z,48.08
2023-05-16T09:31:27.959Z,50.11
2023-05-16T09:33:56.441Z,48.84
2023-05-16T09:36:22.853Z,50.55
2023-05-16T09:38:51.650Z,49.52
2023-05-16T09:41:18.354Z,49.51
2023-05-16T09:43:45.140Z,47.27
2023-05-16T09:46:19.964Z,46.77
2023-05-16T09:48:47.516Z,45.54
2023-05-16T09:51:14.845Z,48.37
2023-05-16T09:53:41.846Z,46.49
2023-05-16T09:56:12.529Z,47.26
2023-05-16T09:58:40.815Z,46.12
2023-05-16T10:01:08.837Z,47.71
2023-05-16T10:03:36.872Z,46.35
2023-05-16T10:06:05.801Z,48.64
2023-05-16T10:08:36.407Z,46.05
2023-05-16T10:11:05.702Z,46.76
2023-05-16T10:13:34.532Z,47.89
2023-05-16T10:16:11.687Z,46.19
2023-05-16T10:18:39.702Z,46.85
2023-05-16T10:21:11.612Z,46.93
2023-05-16T10:23:42.444Z,46.42
2023-05-16T10:26:09.795Z,47.67
2023-05-16T10:28:36.314Z,47.62
2023-05-16T10:31:03.070Z,48.76
2023-05-16T10:33:29.720Z,49.61
2023-05-16T10:35:56.759Z,47.88
2023-05-16T10:38:24.445Z,49.26
2023-05-16T10:40:51.492Z,47.99
2023-05-16T10:43:30.274Z,48.07
2023-05-16T10:45:58.854Z,48.57
2023-05-16T10:48:39.276Z,50.40
2023-05-16T10:51:38.593Z,48.15
2023-05-16T10:54:10.726Z,47.24
2023-05-16T10:56:37.567Z,47.84
2023-05-16T10:59:04.949Z,46.34
2023-05-16T11:01:34.938Z,47.17
2023-05-16T11:04:10.146Z,46.08
2023-05-16T11:06:42.828Z,48.75
2023-05-16T11:09:13.412Z,48.08
2023-05-16T11:11:48.619Z,48.70
2023-05-16T11:14:25.620Z,47.63
2023-05-16T11:17:11.013Z,46.64
2023-05-16T11:19:45.201Z,47.57
2023-05-16T11:22:18.705Z,45.63
2023-05-16T11:25:03.111Z,45.81
2023-05-16T11:27:34.301Z,46.25
2023-05-16T11:30:06.767Z,46.38
2023-05-16T11:32:43.269Z,48.52
2023-05-16T11:35:15.300Z,49.06
2023-05-16T11:37:42.820Z,47.86
2023-05-16T11:40:12.083Z,48.45
2023-05-16T11:42:40.302Z,48.26
2023-05-16T11:45:18.322Z,49.17
2023-05-16T11:47:48.201Z,49.31
2023-05-16T11:50:17.498Z,48.02
2023-05-16T11:52:46.549Z,48.77
2023-05-16T11:55:19.254Z,47.52
2023-05-16T11:57:52.358Z,47.00
2023-05-16T12:00:24.898Z,47.59
2023-05-16T12:02:52.051Z,46.07
2023-05-16T12:05:20.736Z,47.15
2023-05-16T12:07:47.757Z,46.13
2023-05-16T12:10:15.916Z,44.30
2023-05-16T12:12:45.341Z,44.01
2023-05-16T12:15:12.604Z,44.94
2023-05-16T12:17:40.770Z,44.20
2023-05-16T12:20:14.287Z,45.07
2023-05-16T12:22:41.553Z,46.19
2023-05-16T12:25:31.950Z,46.92
2023-05-16T12:28:01.508Z,46.12
2023-05-16T12:30:29.738Z,48.19
2023-05-16T12:32:57.844Z,43.34
2023-05-16T12:35:25.761Z,44.58
2023-05-16T12:37:53.072Z,43.44
2023-05-16T12:40:20.627Z,45.27
2023-05-16T12:42:55.947Z,44.20
2023-05-16T12:45:23.159Z,45.00
2023-05-16T12:47:49.993Z,45.23
2023-05-16T12:50:17.577Z,46.28
2023-05-16T12:52:50.809Z,45.61
2023-05-16T12:55:18.454Z,43.33
2023-05-16T12:57:47.680Z,42.56
2023-05-16T13:00:15.865Z,41.12
2023-05-16T13:02:42.343Z,41.18
2023-05-16T13:05:10.146Z,42.62
2023-05-16T13:07:37.347Z,41.61
2023-05-16T13:10:04.310Z,41.70
2023-05-16T13:12:31.030Z,42.03
2023-05-16T13:14:57.689Z,40.15
2023-05-16T13:17:24.083Z,41.12
2023-05-16T13:19:51.341Z,42.38
2023-05-16T13:22:17.996Z,40.93
2023-05-16T13:24:44.439Z,40.69
2023-05-16T13:27:10.847Z,41.58
2023-05-16T13:29:37.349Z,39.16
2023-05-16T13:32:04.344Z,39.18
2023-05-16T13:34:32.094Z,39.54
2023-05-16T13:36:58.483Z,41.83
2023-05-16T13:39:25.014Z,38.41
2023-05-16T13:41:51.965Z,38.44
2023-05-16T13:44:18.714Z,38.45
2023-05-16T13:46:45.819Z,39.74
2023-05-16T13:49:12.242Z,37.91
2023-05-16T13:51:38.619Z,37.66
2023-05-16T13:54:05.024Z,37.25
2023-05-16T13:56:31.407Z,37.84
2023-05-16T13:59:02.230Z,40.03
2023-05-16T14:01:32.830Z,39.37
2023-05-16T14:03:59.325Z,39.23
2023-05-16T14:06:25.814Z,39.92
2023-05-16T14:08:52.200Z,39.30
2023-05-16T14:11:19.814Z,38.88
2023-05-16T14:13:46.518Z,40.39
2023-05-16T14:16:12.980Z,40.52
2023-05-16T14:18:39.515Z,40.96
2023-05-16T14:21:05.996Z,41.72
2023-05-16T14:23:32.384Z,41.41
2023-05-16T14:25:58.917Z,42.33
2023-05-16T14:28:25.289Z,43.04
2023-05-16T14:30:51.709Z,41.93
2023-05-16T14:33:18.162Z,42.35
2023-05-16T14:35:45.010Z,42.48
2023-05-16T14:38:11.452Z,42.49
2023-05-16T14:40:38.252Z,41.96
2023-05-16T14:43:04.684Z,41.53
2023-05-16T14:45:31.284Z,42.49
2023-05-16T14:47:57.728Z,42.45
2023-05-16T14:50:24.184Z,41.99
2023-05-16T14:52:50.577Z,41.90
2023-05-16T14:55:16.972Z,42.72
2023-05-16T14:57:45.501Z,42.93
2023-05-16T15:00:13.303Z,43.75
2023-05-16T15:02:39.793Z,43.88
2023-05-16T15:05:06.798Z,43.35
2023-05-16T15:07:33.202Z,45.53
2023-05-16T15:09:59.614Z,45.23
2023-05-16T15:12:25.989Z,45.07
2023-05-16T15:14:52.488Z,44.78
2023-05-16T15:17:18.918Z,45.46
2023-05-16T15:19:45.562Z,45.59
2023-05-16T15:22:12.024Z,45.44
2023-05-16T15:24:38.495Z,46.63
2023-05-16T15:27:05.296Z,46.60
2023-05-16T15:29:34.372Z,45.58
2023-05-16T15:32:04.704Z,45.18
2023-05-16T15:34:31.978Z,45.79
2023-05-16T15:36:58.826Z,44.49
2023-05-16T15:39:28.161Z,44.74
2023-05-16T15:42:08.579Z,45.34
2023-05-16T15:44:36.122Z,46.99
2023-05-16T15:47:02.604Z,45.34
2023-05-16T15:49:29.033Z,45.08
2023-05-16T15:51:55.439Z,44.59
2023-05-16T15:54:21.837Z,44.20
2023-05-16T15:56:48.367Z,46.19
2023-05-16T15:59:14.832Z,45.04
2023-05-16T16:01:41.307Z,45.70
2023-05-16T16:04:07.898Z,46.57
2023-05-16T16:06:34.338Z,46.48
2023-05-16T16:09:00.875Z,44.88
2023-05-16T16:11:27.518Z,45.55
2023-05-16T16:13:53.907Z,45.41
2023-05-16T16:16:20.322Z,46.38
2023-05-16T16:18:46.855Z,46.24
2023-05-16T16:21:13.448Z,46.49
2023-05-16T16:23:40.453Z,46.30
2023-05-16T16:26:06.895Z,46.83
2023-05-16T16:28:33.328Z,46.52
2023-05-16T16:30:59.804Z,46.78
2023-05-16T16:33:26.233Z,45.76
2023-05-16T16:35:54.469Z,46.09
2023-05-16T16:38:21.370Z,46.41
2023-05-16T16:40:47.749Z,47.18
2023-05-16T16:43:14.844Z,46.18
2023-05-16T16:45:41.303Z,46.78
2023-05-16T16:48:09.190Z,47.26
2023-05-16T16:50:35.644Z,46.84
2023-05-16T16:53:04.146Z,46.35
2023-05-16T16:55:31.097Z,45.61
2023-05-16T16:57:57.725Z,45.38
2023-05-16T17:00:24.456Z,46.30
2023-05-16T17:02:51.167Z,46.36
2023-05-16T17:05:17.826Z,45.89
2023-05-16T17:07:44.345Z,45.56
2023-05-16T17:10:10.922Z,45.01
2023-05-16T17:12:44.327Z,45.85
2023-05-16T17:15:11.763Z,46.12
2023-05-16T17:17:38.461Z,45.92
2023-05-16T17:20:07.160Z,46.08
2023-05-16T17:22:33.765Z,45.96
2023-05-16T17:25:00.143Z,45.99
2023-05-16T17:27:26.562Z,46.76
2023-05-16T17:29:52.977Z,46.95
2023-05-16T17:32:21.290Z,46.56
2023-05-16T17:34:48.146Z,47.31
2023-05-16T17:37:14.629Z,47.65
2023-05-16T17:39:41.004Z,48.27
2023-05-16T17:42:07.541Z,47.83
2023-05-16T17:44:33.977Z,48.21
2023-05-16T17:47:00.504Z,48.74
2023-05-16T17:49:27.071Z,48.50
2023-05-16T17:51:56.528Z,48.99
2023-05-16T17:54:23.957Z,48.95
2023-05-16T17:56:50.780Z,47.79
2023-05-16T17:59:17.683Z,47.87
2023-05-16T18:01:44.054Z,48.00
2023-05-16T18:04:10.748Z,47.96
2023-05-16T18:06:38.201Z,48.15
2023-05-16T18:09:10.144Z,48.05
2023-05-16T18:11:38.829Z,48.14
2023-05-16T18:14:05.379Z,47.65
2023-05-16T18:16:31.852Z,47.91
2023-05-16T18:18:58.506Z,47.74
2023-05-16T18:21:25.192Z,48.37
2023-05-16T18:23:51.714Z,48.29
2023-05-16T18:26:19.122Z,47.55
2023-05-16T18:28:45.829Z,48.04
2023-05-16T18:31:12.396Z,47.60
2023-05-16T18:33:38.903Z,47.99
2023-05-16T18:36:05.594Z,48.12
2023-05-16T18:38:33.611Z,47.80
2023-05-16T18:41:00.428Z,48.19
2023-05-16T18:43:26.900Z,49.30
2023-05-16T18:45:53.336Z,49.08
2023-05-16T18:48:19.867Z,48.73
2023-05-16T18:50:46.646Z,48.97
2023-05-16T18:53:13.117Z,49.04
2023-05-16T18:55:39.594Z,49.25
2023-05-16T18:58:06.871Z,49.02
2023-05-16T19:00:34.199Z,49.63
2023-05-16T19:03:01.206Z,49.73
2023-05-16T19:05:28.186Z,49.48
2023-05-16T19:07:54.776Z,49.62
2023-05-16T19:10:21.260Z,50.53
2023-05-16T19:12:48.945Z,51.48
2023-05-16T19:15:15.540Z,51.70
2023-05-16T19:17:42.073Z,51.35
2023-05-16T19:20:09.364Z,51.71
2023-05-16T19:22:36.010Z,51.82
2023-05-16T19:25:02.705Z,52.06
2023-05-16T19:27:29.122Z,51.86
2023-05-16T19:29:57.049Z,52.45
2023-05-16T19:32:23.589Z,52.59
2023-05-16T19:34:49.979Z,52.24
2023-05-16T19:37:16.426Z,52.72
2023-05-16T19:39:42.787Z,52.72
2023-05-16T19:42:09.169Z,53.08
2023-05-16T19:44:35.599Z,52.88
2023-05-16T19:47:02.256Z,53.07
2023-05-16T19:49:31.540Z,52.74
2023-05-16T19:51:58.061Z,52.63
2023-05-16T19:54:24.520Z,53.57
2023-05-16T19:56:51.005Z,52.79
2023-05-16T19:59:17.490Z,53.21
2023-05-16T20:01:43.989Z,53.41
2023-05-16T20:04:11.421Z,53.55
2023-05-16T20:06:37.947Z,53.88
2023-05-16T20:09:04.352Z,53.52
2023-05-16T20:11:30.754Z,53.48
2023-05-16T20:13:59.440Z,54.37
2023-05-16T20:16:26.957Z,54.08
2023-05-16T20:18:53.488Z,54.45
2023-05-16T20:21:19.933Z,54.23
2023-05-16T20:23:46.325Z,54.48
2023-05-16T20:26:15.756Z,54.96
2023-05-16T20:28:44.952Z,55.72
2023-05-16T20:31:11.326Z,55.69
2023-05-16T20:33:37.748Z,57.89
2023-05-16T20:36:04.373Z,59.51
2023-05-16T20:38:30.913Z,60.71
2023-05-16T20:40:57.565Z,61.16
2023-05-16T20:43:26.478Z,61.37
2023-05-16T20:45:53.162Z,61.71
2023-05-16T20:48:19.601Z,61.16
2023-05-16T20:50:46.115Z,61.29
2023-05-16T20:53:12.620Z,61.50
2023-05-16T20:55:39.010Z,61.07
2023-05-16T20:58:06.080Z,60.95
2023-05-16T21:00:33.591Z,60.30
2023-05-16T21:03:00.044Z,60.19
2023-05-16T21:05:26.562Z,59.30
2023-05-16T21:07:53.231Z,59.30
2023-05-16T21:10:20.146Z,58.85
2023-05-16T21:12:46.917Z,59.20
2023-05-16T21:15:13.353Z,59.00
2023-05-16T21:17:40.781Z,59.41
2023-05-16T21:20:08.806Z,59.13
2023-05-16T21:22:35.577Z,59.20
2023-05-16T21:25:02.065Z,59.79
2023-05-16T21:27:28.590Z,59.86
2023-05-16T21:29:55.201Z,59.90
2023-05-16T21:32:21.617Z,59.77
2023-05-16T21:34:47.994Z,59.77
2023-05-16T21:37:14.694Z,60.01
2023-05-16T21:39:41.331Z,60.24
2023-05-16T21:42:07.802Z,60.50
2023-05-16T21:44:34.280Z,60.89
2023-05-16T21:47:00.914Z,61.38
2023-05-16T21:49:27.330Z,61.68
2023-05-16T21:51:53.711Z,61.85
2023-05-16T21:54:20.084Z,62.28
2023-05-16T21:56:46.579Z,62.56
2023-05-16T21:59:13.843Z,62.87
2023-05-16T22:01:40.237Z,63.07
2023-05-16T22:04:06.823Z,63.24
2023-05-16T22:06:33.400Z,63.39
2023-05-16T22:09:01.390Z,63.23
2023-05-16T22:11:27.880Z,63.55
2023-05-16T22:13:54.266Z,63.62
2023-05-16T22:16:20.641Z,63.62
2023-05-16T22:18:47.384Z,63.86
2023-05-16T22:21:15.991Z,63.77
2023-05-16T22:23:42.691Z,63.98
2023-05-16T22:26:09.082Z,63.72
2023-05-16T22:28:35.546Z,64.28
2023-05-16T22:31:01.910Z,64.27
2023-05-16T22:33:28.472Z,64.10
2023-05-16T22:35:55.058Z,64.64
2023-05-16T22:38:21.461Z,64.20
2023-05-16T22:40:47.814Z,64.38
2023-05-16T22:43:14.225Z,64.45
2023-05-16T22:45:40.760Z,64.52
2023-05-16T22:48:07.252Z,64.49
2023-05-16T22:50:33.773Z,64.71
2023-05-16T22:53:00.241Z,64.69
2023-05-16T22:55:26.820Z,64.82
2023-05-16T22:57:56.914Z,64.63
2023-05-16T23:00:23.518Z,64.32
2023-05-16T23:02:50.005Z,64.72
2023-05-16T23:05:16.819Z,64.80
2023-05-16T23:07:43.233Z,64.45
2023-05-16T23:10:09.795Z,64.47
2023-05-16T23:12:36.155Z,64.56
2023-05-16T23:15:03.152Z,64.69
2023-05-16T23:17:29.671Z,64.87
2023-05-16T23:19:56.330Z,64.59
2023-05-16T23:22:22.840Z,64.81
2023-05-16T23:24:49.203Z,64.98
2023-05-16T23:27:15.564Z,64.62
2023-05-16T23:29:42.059Z,64.73
2023-05-16T23:32:08.460Z,64.89
2023-05-16T23:34:34.838Z,65.16
2023-05-16T23:37:01.390Z,65.16
2023-05-16T23:39:27.815Z,65.11
2023-05-16T23:41:54.277Z,65.53
2023-05-16T23:44:20.682Z,65.15
2023-05-16T23:46:47.050Z,65.60
2023-05-16T23:49:13.451Z,65.35
2023-05-16T23:51:55.834Z,65.63
2023-05-16T23:54:23.065Z,65.32
2023-05-16T23:56:49.595Z,65.48
2023-05-16T23:59:16.349Z,65.93
